sensor_id;sensor_type;location;lat;lon;timestamp;temperature;humidity
37910;DHT22;23741;49.446;8.754;2023-05-20T00:01:53;18.40;49.70
37910;DHT22;23741;49.446;8.754;2023-05-20T00:03:54;18.40;49.70
37910;DHT22;23741;49.446;8.754;2023-05-20T00:05:56;18.40;49.70
37910;DHT22;23741;49.446;8.754;2023-05-20T00:07:58;18.40;49.70
37910;DHT22;23741;49.446;8.754;2023-05-20T00:10:01;18.40;49.80
37910;DHT22;23741;49.446;8.754;2023-05-20T00:12:02;18.40;49.90
37910;DHT22;23741;49.446;8.754;2023-05-20T00:14:04;18.40;49.90
37910;DHT22;23741;49.446;8.754;2023-05-20T00:16:06;18.40;49.90
37910;DHT22;23741;49.446;8.754;2023-05-20T00:18:08;18.40;49.90
37910;DHT22;23741;49.446;8.754;2023-05-20T00:20:10;18.40;50.20
37910;DHT22;23741;49.446;8.754;2023-05-20T00:22:12;18.40;50.10
37910;DHT22;23741;49.446;8.754;2023-05-20T00:24:13;18.40;49.90
37910;DHT22;23741;49.446;8.754;2023-05-20T00:26:15;18.30;50.00
37910;DHT22;23741;49.446;8.754;2023-05-20T00:28:21;18.40;50.10
37910;DHT22;23741;49.446;8.754;2023-05-20T00:30:24;18.40;50.10
37910;DHT22;23741;49.446;8.754;2023-05-20T00:32:26;18.40;50.20
37910;DHT22;23741;49.446;8.754;2023-05-20T00:34:27;18.40;50.30
37910;DHT22;23741;49.446;8.754;2023-05-20T00:36:29;18.40;50.40
37910;DHT22;23741;49.446;8.754;2023-05-20T00:38:32;18.40;50.40
37910;DHT22;23741;49.446;8.754;2023-05-20T00:40:34;18.50;50.40
37910;DHT22;23741;49.446;8.754;2023-05-20T00:42:36;18.40;50.40
37910;DHT22;23741;49.446;8.754;2023-05-20T00:44:38;18.40;50.60
37910;DHT22;23741;49.446;8.754;2023-05-20T00:46:40;18.40;50.60
37910;DHT22;23741;49.446;8.754;2023-05-20T00:48:42;18.40;50.50
37910;DHT22;23741;49.446;8.754;2023-05-20T00:50:44;18.40;50.60
37910;DHT22;23741;49.446;8.754;2023-05-20T00:52:46;18.40;50.60
37910;DHT22;23741;49.446;8.754;2023-05-20T00:54:52;18.40;50.70
37910;DHT22;23741;49.446;8.754;2023-05-20T00:56:53;18.40;50.80
37910;DHT22;23741;49.446;8.754;2023-05-20T00:58:55;18.40;50.80
37910;DHT22;23741;49.446;8.754;2023-05-20T01:00:57;18.30;50.90
37910;DHT22;23741;49.446;8.754;2023-05-20T01:02:59;18.30;50.80
37910;DHT22;23741;49.446;8.754;2023-05-20T01:05:01;18.30;51.70
37910;DHT22;23741;49.446;8.754;2023-05-20T01:07:04;18.30;51.00
37910;DHT22;23741;49.446;8.754;2023-05-20T01:09:06;18.30;51.00
37910;DHT22;23741;49.446;8.754;2023-05-20T01:11:11;18.20;51.10
37910;DHT22;23741;49.446;8.754;2023-05-20T01:13:15;18.20;51.00
37910;DHT22;23741;49.446;8.754;2023-05-20T01:15:17;18.20;51.00
37910;DHT22;23741;49.446;8.754;2023-05-20T01:17:19;18.20;51.10
37910;DHT22;23741;49.446;8.754;2023-05-20T01:19:34;18.20;51.10
37910;DHT22;23741;49.446;8.754;2023-05-20T01:21:36;18.10;51.20
37910;DHT22;23741;49.446;8.754;2023-05-20T01:23:39;18.10;51.20
37910;DHT22;23741;49.446;8.754;2023-05-20T01:25:42;18.10;51.30
37910;DHT22;23741;49.446;8.754;2023-05-20T01:27:44;18.10;51.40
37910;DHT22;23741;49.446;8.754;2023-05-20T01:29:46;18.00;51.30
37910;DHT22;23741;49.446;8.754;2023-05-20T01:31:51;18.10;51.50
37910;DHT22;23741;49.446;8.754;2023-05-20T01:33:54;18.00;51.50
37910;DHT22;23741;49.446;8.754;2023-05-20T01:35:56;18.00;51.50
37910;DHT22;23741;49.446;8.754;2023-05-20T01:37:59;18.00;51.60
37910;DHT22;23741;49.446;8.754;2023-05-20T01:40:01;17.90;51.50
37910;DHT22;23741;49.446;8.754;2023-05-20T01:42:04;17.90;51.60
37910;DHT22;23741;49.446;8.754;2023-05-20T01:44:06;17.90;51.70
37910;DHT22;23741;49.446;8.754;2023-05-20T01:46:09;17.90;51.80
37910;DHT22;23741;49.446;8.754;2023-05-20T01:48:10;17.90;51.90
37910;DHT22;23741;49.446;8.754;2023-05-20T01:50:12;17.90;51.90
37910;DHT22;23741;49.446;8.754;2023-05-20T01:52:14;17.90;52.00
37910;DHT22;23741;49.446;8.754;2023-05-20T01:54:16;17.90;51.90
37910;DHT22;23741;49.446;8.754;2023-05-20T01:56:18;17.90;52.30
37910;DHT22;23741;49.446;8.754;2023-05-20T01:58:19;17.90;52.00
37910;DHT22;23741;49.446;8.754;2023-05-20T02:00:21;17.90;52.00
37910;DHT22;23741;49.446;8.754;2023-05-20T02:02:23;17.80;51.80
37910;DHT22;23741;49.446;8.754;2023-05-20T02:04:25;17.80;52.00
37910;DHT22;23741;49.446;8.754;2023-05-20T02:06:26;17.80;52.50
37910;DHT22;23741;49.446;8.754;2023-05-20T02:08:29;17.80;51.90
37910;DHT22;23741;49.446;8.754;2023-05-20T02:10:30;17.80;52.10
37910;DHT22;23741;49.446;8.754;2023-05-20T02:12:32;17.80;52.30
37910;DHT22;23741;49.446;8.754;2023-05-20T02:14:34;17.80;52.30
37910;DHT22;23741;49.446;8.754;2023-05-20T02:16:36;17.80;52.20
37910;DHT22;23741;49.446;8.754;2023-05-20T02:18:37;17.80;52.30
37910;DHT22;23741;49.446;8.754;2023-05-20T02:20:39;17.80;52.60
37910;DHT22;23741;49.446;8.754;2023-05-20T02:22:41;17.80;52.40
37910;DHT22;23741;49.446;8.754;2023-05-20T02:24:44;17.80;53.30
37910;DHT22;23741;49.446;8.754;2023-05-20T02:26:46;17.80;52.60
37910;DHT22;23741;49.446;8.754;2023-05-20T02:28:49;17.80;52.50
37910;DHT22;23741;49.446;8.754;2023-05-20T02:30:52;17.70;52.70
37910;DHT22;23741;49.446;8.754;2023-05-20T02:32:53;17.80;52.60
37910;DHT22;23741;49.446;8.754;2023-05-20T02:34:55;17.70;52.50
37910;DHT22;23741;49.446;8.754;2023-05-20T02:36:57;17.70;52.50
37910;DHT22;23741;49.446;8.754;2023-05-20T02:38:59;17.70;52.40
37910;DHT22;23741;49.446;8.754;2023-05-20T02:41:01;17.70;52.50
37910;DHT22;23741;49.446;8.754;2023-05-20T02:43:04;17.70;52.40
37910;DHT22;23741;49.446;8.754;2023-05-20T02:45:08;17.70;52.60
37910;DHT22;23741;49.446;8.754;2023-05-20T02:47:10;17.70;52.60
37910;DHT22;23741;49.446;8.754;2023-05-20T02:49:11;17.70;52.50
37910;DHT22;23741;49.446;8.754;2023-05-20T02:51:13;17.70;52.70
37910;DHT22;23741;49.446;8.754;2023-05-20T02:53:15;17.70;52.70
37910;DHT22;23741;49.446;8.754;2023-05-20T02:55:17;17.70;52.60
37910;DHT22;23741;49.446;8.754;2023-05-20T02:57:19;17.70;52.40
37910;DHT22;23741;49.446;8.754;2023-05-20T02:59:20;17.70;52.50
37910;DHT22;23741;49.446;8.754;2023-05-20T03:01:22;17.70;52.80
37910;DHT22;23741;49.446;8.754;2023-05-20T03:03:24;17.60;52.70
37910;DHT22;23741;49.446;8.754;2023-05-20T03:05:27;17.60;52.50
37910;DHT22;23741;49.446;8.754;2023-05-20T03:07:30;17.50;52.60
37910;DHT22;23741;49.446;8.754;2023-05-20T03:09:32;17.70;52.70
37910;DHT22;23741;49.446;8.754;2023-05-20T03:11:34;17.70;53.50
37910;DHT22;23741;49.446;8.754;2023-05-20T03:13:36;17.60;53.10
37910;DHT22;23741;49.446;8.754;2023-05-20T03:15:38;17.60;53.20
37910;DHT22;23741;49.446;8.754;2023-05-20T03:17:40;17.60;53.20
37910;DHT22;23741;49.446;8.754;2023-05-20T03:19:42;17.60;53.20
37910;DHT22;23741;49.446;8.754;2023-05-20T03:21:43;17.60;54.10
37910;DHT22;23741;49.446;8.754;2023-05-20T03:23:47;17.60;53.50
37910;DHT22;23741;49.446;8.754;2023-05-20T03:25:49;17.60;53.30
37910;DHT22;23741;49.446;8.754;2023-05-20T03:27:51;17.60;53.80
37910;DHT22;23741;49.446;8.754;2023-05-20T03:29:53;17.60;54.20
37910;DHT22;23741;49.446;8.754;2023-05-20T03:31:58;17.60;53.50
37910;DHT22;23741;49.446;8.754;2023-05-20T03:33:59;17.60;53.40
37910;DHT22;23741;49.446;8.754;2023-05-20T03:36:01;17.60;53.50
37910;DHT22;23741;49.446;8.754;2023-05-20T03:38:03;17.50;53.20
37910;DHT22;23741;49.446;8.754;2023-05-20T03:40:08;17.50;53.20
37910;DHT22;23741;49.446;8.754;2023-05-20T03:42:14;17.60;53.20
37910;DHT22;23741;49.446;8.754;2023-05-20T03:44:16;17.60;53.40
37910;DHT22;23741;49.446;8.754;2023-05-20T03:46:18;17.60;53.80
37910;DHT22;23741;49.446;8.754;2023-05-20T03:48:20;17.60;53.50
37910;DHT22;23741;49.446;8.754;2023-05-20T03:50:22;17.60;53.60
37910;DHT22;23741;49.446;8.754;2023-05-20T03:52:24;17.60;53.80
37910;DHT22;23741;49.446;8.754;2023-05-20T03:54:26;17.60;54.10
37910;DHT22;23741;49.446;8.754;2023-05-20T03:56:28;17.60;54.10
37910;DHT22;23741;49.446;8.754;2023-05-20T03:58:30;17.60;53.70
37910;DHT22;23741;49.446;8.754;2023-05-20T04:00:32;17.60;54.40
37910;DHT22;23741;49.446;8.754;2023-05-20T04:02:34;17.60;54.30
37910;DHT22;23741;49.446;8.754;2023-05-20T04:04:36;17.60;54.50
37910;DHT22;23741;49.446;8.754;2023-05-20T04:06:38;17.60;54.80
37910;DHT22;23741;49.446;8.754;2023-05-20T04:08:40;17.60;54.90
37910;DHT22;23741;49.446;8.754;2023-05-20T04:10:43;17.60;54.80
37910;DHT22;23741;49.446;8.754;2023-05-20T04:12:45;17.60;55.20
37910;DHT22;23741;49.446;8.754;2023-05-20T04:14:47;17.60;54.50
37910;DHT22;23741;49.446;8.754;2023-05-20T04:16:50;17.60;54.60
37910;DHT22;23741;49.446;8.754;2023-05-20T04:18:53;17.60;54.20
37910;DHT22;23741;49.446;8.754;2023-05-20T04:20:55;17.60;54.00
37910;DHT22;23741;49.446;8.754;2023-05-20T04:22:57;17.60;53.90
37910;DHT22;23741;49.446;8.754;2023-05-20T04:24:59;17.60;54.20
37910;DHT22;23741;49.446;8.754;2023-05-20T04:27:01;17.60;54.00
37910;DHT22;23741;49.446;8.754;2023-05-20T04:29:03;17.70;54.00
37910;DHT22;23741;49.446;8.754;2023-05-20T04:31:06;17.60;54.10
37910;DHT22;23741;49.446;8.754;2023-05-20T04:33:10;17.60;54.10
37910;DHT22;23741;49.446;8.754;2023-05-20T04:35:12;17.60;54.20
37910;DHT22;23741;49.446;8.754;2023-05-20T04:37:17;17.60;54.20
37910;DHT22;23741;49.446;8.754;2023-05-20T04:39:19;17.70;54.20
37910;DHT22;23741;49.446;8.754;2023-05-20T04:41:25;17.70;54.20
37910;DHT22;23741;49.446;8.754;2023-05-20T04:43:28;17.70;54.50
37910;DHT22;23741;49.446;8.754;2023-05-20T04:45:32;17.70;54.20
37910;DHT22;23741;49.446;8.754;2023-05-20T04:47:34;17.70;54.20
37910;DHT22;23741;49.446;8.754;2023-05-20T04:49:39;17.70;54.10
37910;DHT22;23741;49.446;8.754;2023-05-20T04:51:41;17.70;56.30
37910;DHT22;23741;49.446;8.754;2023-05-20T04:53:45;17.70;54.70
37910;DHT22;23741;49.446;8.754;2023-05-20T04:55:47;17.70;54.60
37910;DHT22;23741;49.446;8.754;2023-05-20T04:57:51;17.70;54.30
37910;DHT22;23741;49.446;8.754;2023-05-20T04:59:53;17.70;55.40
37910;DHT22;23741;49.446;8.754;2023-05-20T05:01:59;17.70;55.50
37910;DHT22;23741;49.446;8.754;2023-05-20T05:04:01;17.70;55.40
37910;DHT22;23741;49.446;8.754;2023-05-20T05:06:03;17.70;54.90
37910;DHT22;23741;49.446;8.754;2023-05-20T05:08:05;17.70;56.20
37910;DHT22;23741;49.446;8.754;2023-05-20T05:10:10;17.70;55.50
37910;DHT22;23741;49.446;8.754;2023-05-20T05:12:12;17.70;55.60
37910;DHT22;23741;49.446;8.754;2023-05-20T05:14:14;17.70;55.50
37910;DHT22;23741;49.446;8.754;2023-05-20T05:16:16;17.70;55.40
37910;DHT22;23741;49.446;8.754;2023-05-20T05:18:18;17.70;55.50
37910;DHT22;23741;49.446;8.754;2023-05-20T05:20:20;17.70;55.10
37910;DHT22;23741;49.446;8.754;2023-05-20T05:22:21;17.80;55.00
37910;DHT22;23741;49.446;8.754;2023-05-20T05:24:25;17.80;55.90
37910;DHT22;23741;49.446;8.754;2023-05-20T05:26:26;17.70;55.30
37910;DHT22;23741;49.446;8.754;2023-05-20T05:28:28;17.80;55.20
37910;DHT22;23741;49.446;8.754;2023-05-20T05:30:31;17.80;55.30
37910;DHT22;23741;49.446;8.754;2023-05-20T05:32:33;17.80;55.70
37910;DHT22;23741;49.446;8.754;2023-05-20T05:34:35;17.80;55.20
37910;DHT22;23741;49.446;8.754;2023-05-20T05:36:38;17.80;55.20
37910;DHT22;23741;49.446;8.754;2023-05-20T05:38:40;17.80;54.90
37910;DHT22;23741;49.446;8.754;2023-05-20T05:40:42;17.90;54.80
37910;DHT22;23741;49.446;8.754;2023-05-20T05:42:44;17.80;54.90
37910;DHT22;23741;49.446;8.754;2023-05-20T05:44:46;17.90;54.60
37910;DHT22;23741;49.446;8.754;2023-05-20T05:46:49;17.90;54.80
37910;DHT22;23741;49.446;8.754;2023-05-20T05:48:51;17.90;54.80
37910;DHT22;23741;49.446;8.754;2023-05-20T05:50:53;17.90;55.10
37910;DHT22;23741;49.446;8.754;2023-05-20T05:52:55;18.00;55.00
37910;DHT22;23741;49.446;8.754;2023-05-20T05:54:57;18.00;55.00
37910;DHT22;23741;49.446;8.754;2023-05-20T05:56:59;18.00;55.00
37910;DHT22;23741;49.446;8.754;2023-05-20T05:59:03;18.00;55.00
37910;DHT22;23741;49.446;8.754;2023-05-20T06:01:05;18.10;55.30
37910;DHT22;23741;49.446;8.754;2023-05-20T06:03:07;18.10;55.20
37910;DHT22;23741;49.446;8.754;2023-05-20T06:05:11;18.10;55.10
37910;DHT22;23741;49.446;8.754;2023-05-20T06:07:13;18.10;55.60
37910;DHT22;23741;49.446;8.754;2023-05-20T06:09:14;18.30;55.30
37910;DHT22;23741;49.446;8.754;2023-05-20T06:11:16;18.10;54.80
37910;DHT22;23741;49.446;8.754;2023-05-20T06:13:18;18.20;54.90
37910;DHT22;23741;49.446;8.754;2023-05-20T06:15:20;18.20;54.70
37910;DHT22;23741;49.446;8.754;2023-05-20T06:17:22;18.20;55.00
37910;DHT22;23741;49.446;8.754;2023-05-20T06:19:24;18.20;54.90
37910;DHT22;23741;49.446;8.754;2023-05-20T06:21:26;18.30;55.10
37910;DHT22;23741;49.446;8.754;2023-05-20T06:23:28;18.30;55.40
37910;DHT22;23741;49.446;8.754;2023-05-20T06:25:32;18.30;55.00
37910;DHT22;23741;49.446;8.754;2023-05-20T06:27:35;18.40;55.10
37910;DHT22;23741;49.446;8.754;2023-05-20T06:29:37;18.40;55.30
37910;DHT22;23741;49.446;8.754;2023-05-20T06:31:39;18.40;55.10
37910;DHT22;23741;49.446;8.754;2023-05-20T06:33:41;18.40;55.20
37910;DHT22;23741;49.446;8.754;2023-05-20T06:35:46;18.40;55.30
37910;DHT22;23741;49.446;8.754;2023-05-20T06:37:48;18.50;55.20
37910;DHT22;23741;49.446;8.754;2023-05-20T06:39:50;18.50;55.00
37910;DHT22;23741;49.446;8.754;2023-05-20T06:41:54;18.50;55.30
37910;DHT22;23741;49.446;8.754;2023-05-20T06:44:02;18.50;55.00
37910;DHT22;23741;49.446;8.754;2023-05-20T06:46:27;18.60;55.00
37910;DHT22;23741;49.446;8.754;2023-05-20T06:48:33;18.60;55.00
37910;DHT22;23741;49.446;8.754;2023-05-20T06:50:35;18.60;54.80
37910;DHT22;23741;49.446;8.754;2023-05-20T06:52:37;18.70;55.10
37910;DHT22;23741;49.446;8.754;2023-05-20T06:54:40;18.70;54.90
37910;DHT22;23741;49.446;8.754;2023-05-20T06:56:44;18.70;56.00
37910;DHT22;23741;49.446;8.754;2023-05-20T06:58:48;18.80;55.30
37910;DHT22;23741;49.446;8.754;2023-05-20T07:00:50;18.80;55.20
37910;DHT22;23741;49.446;8.754;2023-05-20T07:02:52;18.80;55.20
37910;DHT22;23741;49.446;8.754;2023-05-20T07:04:54;18.90;55.00
37910;DHT22;23741;49.446;8.754;2023-05-20T07:06:57;18.80;55.00
37910;DHT22;23741;49.446;8.754;2023-05-20T07:08:58;18.90;54.90
37910;DHT22;23741;49.446;8.754;2023-05-20T07:11:01;18.90;55.10
37910;DHT22;23741;49.446;8.754;2023-05-20T07:13:03;19.00;54.90
37910;DHT22;23741;49.446;8.754;2023-05-20T07:15:05;19.00;54.80
37910;DHT22;23741;49.446;8.754;2023-05-20T07:17:08;19.00;54.90
37910;DHT22;23741;49.446;8.754;2023-05-20T07:19:11;19.00;55.00
37910;DHT22;23741;49.446;8.754;2023-05-20T07:21:13;19.00;54.80
37910;DHT22;23741;49.446;8.754;2023-05-20T07:23:31;19.10;54.70
37910;DHT22;23741;49.446;8.754;2023-05-20T07:25:33;19.10;54.60
37910;DHT22;23741;49.446;8.754;2023-05-20T07:27:36;19.10;54.70
37910;DHT22;23741;49.446;8.754;2023-05-20T07:29:37;19.20;55.20
37910;DHT22;23741;49.446;8.754;2023-05-20T07:31:39;19.20;55.10
37910;DHT22;23741;49.446;8.754;2023-05-20T07:33:41;19.30;55.20
37910;DHT22;23741;49.446;8.754;2023-05-20T07:35:43;19.20;54.60
37910;DHT22;23741;49.446;8.754;2023-05-20T07:37:46;19.30;54.30
37910;DHT22;23741;49.446;8.754;2023-05-20T07:39:48;19.30;54.40
37910;DHT22;23741;49.446;8.754;2023-05-20T07:41:50;19.30;54.60
37910;DHT22;23741;49.446;8.754;2023-05-20T07:43:52;19.30;54.90
37910;DHT22;23741;49.446;8.754;2023-05-20T07:45:54;19.40;55.10
37910;DHT22;23741;49.446;8.754;2023-05-20T07:47:56;19.40;54.50
37910;DHT22;23741;49.446;8.754;2023-05-20T07:49:58;19.40;55.00
37910;DHT22;23741;49.446;8.754;2023-05-20T07:52:00;19.50;54.70
37910;DHT22;23741;49.446;8.754;2023-05-20T07:54:04;19.50;54.60
37910;DHT22;23741;49.446;8.754;2023-05-20T07:56:06;19.50;54.40
37910;DHT22;23741;49.446;8.754;2023-05-20T07:58:08;19.50;54.50
37910;DHT22;23741;49.446;8.754;2023-05-20T08:00:10;19.50;54.30
37910;DHT22;23741;49.446;8.754;2023-05-20T08:02:17;19.60;54.50
37910;DHT22;23741;49.446;8.754;2023-05-20T08:04:20;19.60;54.40
37910;DHT22;23741;49.446;8.754;2023-05-20T08:06:21;19.60;54.40
37910;DHT22;23741;49.446;8.754;2023-05-20T08:08:30;19.60;54.40
37910;DHT22;23741;49.446;8.754;2023-05-20T08:10:37;19.70;54.50
37910;DHT22;23741;49.446;8.754;2023-05-20T08:12:39;19.70;54.50
37910;DHT22;23741;49.446;8.754;2023-05-20T08:14:42;19.70;54.20
37910;DHT22;23741;49.446;8.754;2023-05-20T08:16:45;19.80;54.20
37910;DHT22;23741;49.446;8.754;2023-05-20T08:18:47;19.90;54.10
37910;DHT22;23741;49.446;8.754;2023-05-20T08:20:49;19.80;54.20
37910;DHT22;23741;49.446;8.754;2023-05-20T08:22:51;19.90;54.60
37910;DHT22;23741;49.446;8.754;2023-05-20T08:24:53;19.90;54.20
37910;DHT22;23741;49.446;8.754;2023-05-20T08:26:55;19.90;54.80
37910;DHT22;23741;49.446;8.754;2023-05-20T08:29:00;19.90;54.20
37910;DHT22;23741;49.446;8.754;2023-05-20T08:31:02;19.90;54.70
37910;DHT22;23741;49.446;8.754;2023-05-20T08:33:05;20.00;54.10
37910;DHT22;23741;49.446;8.754;2023-05-20T08:35:07;20.00;54.20
37910;DHT22;23741;49.446;8.754;2023-05-20T08:37:09;20.00;54.30
37910;DHT22;23741;49.446;8.754;2023-05-20T08:39:11;20.00;54.60
37910;DHT22;23741;49.446;8.754;2023-05-20T08:41:13;20.10;54.40
37910;DHT22;23741;49.446;8.754;2023-05-20T08:43:18;20.10;54.20
37910;DHT22;23741;49.446;8.754;2023-05-20T08:45:21;20.20;54.60
37910;DHT22;23741;49.446;8.754;2023-05-20T08:47:32;20.20;54.40
37910;DHT22;23741;49.446;8.754;2023-05-20T08:49:34;20.20;54.30
37910;DHT22;23741;49.446;8.754;2023-05-20T08:51:36;20.20;54.10
37910;DHT22;23741;49.446;8.754;2023-05-20T08:53:38;20.30;54.20
37910;DHT22;23741;49.446;8.754;2023-05-20T08:55:48;20.30;54.30
37910;DHT22;23741;49.446;8.754;2023-05-20T08:57:53;20.30;54.00
37910;DHT22;23741;49.446;8.754;2023-05-20T08:59:55;20.30;54.00
37910;DHT22;23741;49.446;8.754;2023-05-20T09:01:57;20.30;54.00
37910;DHT22;23741;49.446;8.754;2023-05-20T09:03:59;20.30;53.90
37910;DHT22;23741;49.446;8.754;2023-05-20T09:06:07;20.40;54.10
37910;DHT22;23741;49.446;8.754;2023-05-20T09:08:10;20.40;53.90
37910;DHT22;23741;49.446;8.754;2023-05-20T09:10:12;20.40;54.10
37910;DHT22;23741;49.446;8.754;2023-05-20T09:12:14;20.40;53.90
37910;DHT22;23741;49.446;8.754;2023-05-20T09:14:16;20.50;53.90
37910;DHT22;23741;49.446;8.754;2023-05-20T09:16:18;20.50;54.10
37910;DHT22;23741;49.446;8.754;2023-05-20T09:18:20;20.50;53.90
37910;DHT22;23741;49.446;8.754;2023-05-20T09:20:22;20.60;53.90
37910;DHT22;23741;49.446;8.754;2023-05-20T09:22:24;20.60;53.90
37910;DHT22;23741;49.446;8.754;2023-05-20T09:24:26;20.60;53.90
37910;DHT22;23741;49.446;8.754;2023-05-20T09:26:28;20.70;54.00
37910;DHT22;23741;49.446;8.754;2023-05-20T09:28:33;20.70;54.10
37910;DHT22;23741;49.446;8.754;2023-05-20T09:30:36;20.80;54.40
37910;DHT22;23741;49.446;8.754;2023-05-20T09:32:38;20.80;54.20
37910;DHT22;23741;49.446;8.754;2023-05-20T09:34:40;20.80;54.30
37910;DHT22;23741;49.446;8.754;2023-05-20T09:36:47;20.80;54.00
37910;DHT22;23741;49.446;8.754;2023-05-20T09:38:51;20.80;53.70
37910;DHT22;23741;49.446;8.754;2023-05-20T09:40:56;20.90;53.80
37910;DHT22;23741;49.446;8.754;2023-05-20T09:43:07;20.90;53.70
37910;DHT22;23741;49.446;8.754;2023-05-20T09:45:09;21.00;53.90
37910;DHT22;23741;49.446;8.754;2023-05-20T09:47:11;21.00;53.70
37910;DHT22;23741;49.446;8.754;2023-05-20T09:49:13;21.10;53.80
37910;DHT22;23741;49.446;8.754;2023-05-20T09:51:15;21.10;53.60
37910;DHT22;23741;49.446;8.754;2023-05-20T09:53:18;21.20;53.70
37910;DHT22;23741;49.446;8.754;2023-05-20T09:55:21;21.20;53.60
37910;DHT22;23741;49.446;8.754;2023-05-20T09:57:23;21.30;53.60
37910;DHT22;23741;49.446;8.754;2023-05-20T09:59:25;21.30;53.60
37910;DHT22;23741;49.446;8.754;2023-05-20T10:01:27;21.40;53.60
37910;DHT22;23741;49.446;8.754;2023-05-20T10:03:30;21.50;53.60
37910;DHT22;23741;49.446;8.754;2023-05-20T10:05:38;21.50;53.40
37910;DHT22;23741;49.446;8.754;2023-05-20T10:07:49;21.50;53.40
37910;DHT22;23741;49.446;8.754;2023-05-20T10:12:10;21.60;53.40
37910;DHT22;23741;49.446;8.754;2023-05-20T10:14:21;21.60;53.30
37910;DHT22;23741;49.446;8.754;2023-05-20T10:20:46;21.80;53.40
37910;DHT22;23741;49.446;8.754;2023-05-20T10:22:57;21.90;53.20
37910;DHT22;23741;49.446;8.754;2023-05-20T10:25:03;21.90;53.10
37910;DHT22;23741;49.446;8.754;2023-05-20T10:27:08;21.90;53.10
37910;DHT22;23741;49.446;8.754;2023-05-20T10:29:13;22.00;53.10
37910;DHT22;23741;49.446;8.754;2023-05-20T10:31:17;22.00;53.00
37910;DHT22;23741;49.446;8.754;2023-05-20T10:33:18;22.10;53.00
37910;DHT22;23741;49.446;8.754;2023-05-20T10:35:21;22.20;53.00
37910;DHT22;23741;49.446;8.754;2023-05-20T10:37:24;22.20;52.90
37910;DHT22;23741;49.446;8.754;2023-05-20T10:39:27;22.30;53.00
37910;DHT22;23741;49.446;8.754;2023-05-20T10:41:29;22.30;52.80
37910;DHT22;23741;49.446;8.754;2023-05-20T10:43:31;22.40;52.80
37910;DHT22;23741;49.446;8.754;2023-05-20T10:45:33;22.40;52.70
37910;DHT22;23741;49.446;8.754;2023-05-20T10:47:41;22.50;52.80
37910;DHT22;23741;49.446;8.754;2023-05-20T10:49:43;22.50;52.80
37910;DHT22;23741;49.446;8.754;2023-05-20T10:51:46;22.60;52.70
37910;DHT22;23741;49.446;8.754;2023-05-20T10:53:51;22.70;52.70
37910;DHT22;23741;49.446;8.754;2023-05-20T10:55:53;22.70;52.70
37910;DHT22;23741;49.446;8.754;2023-05-20T10:57:58;22.80;52.60
37910;DHT22;23741;49.446;8.754;2023-05-20T11:00:00;22.90;52.60
37910;DHT22;23741;49.446;8.754;2023-05-20T11:02:02;22.90;52.40
37910;DHT22;23741;49.446;8.754;2023-05-20T11:04:04;23.00;51.60
37910;DHT22;23741;49.446;8.754;2023-05-20T11:06:14;23.00;51.60
37910;DHT22;23741;49.446;8.754;2023-05-20T11:08:18;23.10;52.60
37910;DHT22;23741;49.446;8.754;2023-05-20T11:10:29;23.10;51.80
37910;DHT22;23741;49.446;8.754;2023-05-20T11:12:32;23.10;51.90
37910;DHT22;23741;49.446;8.754;2023-05-20T11:14:34;23.10;51.80
37910;DHT22;23741;49.446;8.754;2023-05-20T11:16:36;23.20;52.00
37910;DHT22;23741;49.446;8.754;2023-05-20T11:18:38;23.20;52.00
37910;DHT22;23741;49.446;8.754;2023-05-20T11:20:40;23.30;52.00
37910;DHT22;23741;49.446;8.754;2023-05-20T11:22:43;23.30;52.60
37910;DHT22;23741;49.446;8.754;2023-05-20T11:24:45;23.40;51.90
37910;DHT22;23741;49.446;8.754;2023-05-20T11:26:47;23.40;51.80
37910;DHT22;23741;49.446;8.754;2023-05-20T11:28:48;23.50;51.90
37910;DHT22;23741;49.446;8.754;2023-05-20T11:30:51;23.60;51.90
37910;DHT22;23741;49.446;8.754;2023-05-20T11:32:59;23.60;52.00
37910;DHT22;23741;49.446;8.754;2023-05-20T11:35:01;23.70;51.90
37910;DHT22;23741;49.446;8.754;2023-05-20T11:37:05;23.80;51.80
37910;DHT22;23741;49.446;8.754;2023-05-20T11:39:08;23.90;51.90
37910;DHT22;23741;49.446;8.754;2023-05-20T11:41:10;24.00;51.90
37910;DHT22;23741;49.446;8.754;2023-05-20T11:43:13;24.10;51.90
37910;DHT22;23741;49.446;8.754;2023-05-20T11:45:14;24.10;51.70
37910;DHT22;23741;49.446;8.754;2023-05-20T11:47:23;24.20;51.60
37910;DHT22;23741;49.446;8.754;2023-05-20T11:49:24;24.30;51.50
37910;DHT22;23741;49.446;8.754;2023-05-20T11:51:26;24.30;50.90
37910;DHT22;23741;49.446;8.754;2023-05-20T11:53:29;24.40;51.10
37910;DHT22;23741;49.446;8.754;2023-05-20T11:55:31;24.40;51.10
37910;DHT22;23741;49.446;8.754;2023-05-20T11:57:34;24.40;51.20
37910;DHT22;23741;49.446;8.754;2023-05-20T11:59:35;24.50;51.20
37910;DHT22;23741;49.446;8.754;2023-05-20T12:01:37;24.60;50.90
37910;DHT22;23741;49.446;8.754;2023-05-20T12:03:43;24.60;51.00
37910;DHT22;23741;49.446;8.754;2023-05-20T12:05:45;24.70;51.00
37910;DHT22;23741;49.446;8.754;2023-05-20T12:07:51;24.70;50.80
37910;DHT22;23741;49.446;8.754;2023-05-20T12:09:53;24.70;50.80
37910;DHT22;23741;49.446;8.754;2023-05-20T12:11:54;24.80;50.80
37910;DHT22;23741;49.446;8.754;2023-05-20T12:13:57;24.80;50.30
37910;DHT22;23741;49.446;8.754;2023-05-20T12:15:59;24.80;50.00
37910;DHT22;23741;49.446;8.754;2023-05-20T12:18:00;24.80;50.20
37910;DHT22;23741;49.446;8.754;2023-05-20T12:20:02;24.90;50.30
37910;DHT22;23741;49.446;8.754;2023-05-20T12:22:07;24.90;50.40
37910;DHT22;23741;49.446;8.754;2023-05-20T12:24:09;24.90;50.40
37910;DHT22;23741;49.446;8.754;2023-05-20T12:26:11;24.90;50.50
37910;DHT22;23741;49.446;8.754;2023-05-20T12:28:13;25.00;50.60
37910;DHT22;23741;49.446;8.754;2023-05-20T12:30:16;25.00;50.40
37910;DHT22;23741;49.446;8.754;2023-05-20T12:32:18;25.10;50.50
37910;DHT22;23741;49.446;8.754;2023-05-20T12:34:21;25.10;50.40
37910;DHT22;23741;49.446;8.754;2023-05-20T12:36:23;25.20;50.40
37910;DHT22;23741;49.446;8.754;2023-05-20T12:38:24;25.20;50.10
37910;DHT22;23741;49.446;8.754;2023-05-20T12:40:26;25.20;50.40
37910;DHT22;23741;49.446;8.754;2023-05-20T12:42:28;25.30;50.40
37910;DHT22;23741;49.446;8.754;2023-05-20T12:44:30;25.40;50.70
37910;DHT22;23741;49.446;8.754;2023-05-20T12:46:32;25.40;50.70
37910;DHT22;23741;49.446;8.754;2023-05-20T12:48:33;25.50;50.60
37910;DHT22;23741;49.446;8.754;2023-05-20T12:50:35;25.60;50.70
37910;DHT22;23741;49.446;8.754;2023-05-20T12:52:37;25.60;50.50
37910;DHT22;23741;49.446;8.754;2023-05-20T12:54:39;25.70;50.20
37910;DHT22;23741;49.446;8.754;2023-05-20T12:56:41;25.80;50.00
37910;DHT22;23741;49.446;8.754;2023-05-20T12:58:43;25.80;50.00
37910;DHT22;23741;49.446;8.754;2023-05-20T13:00:44;25.80;49.50
37910;DHT22;23741;49.446;8.754;2023-05-20T13:02:46;25.80;49.80